Terminal Aerodrome Forecast
Issued by NWS

Home | Current Version | Previous Version | Text Only | Print | Product List | Glossary On
Versions: 1 2 3 4 5 6 7 8 9 10 11 12 13 14 15 16 17 18 19 20 21 22 23 24 25 26 27 28 29
902
FTUS44 KMAF 180329 AAB
TAFFST
TAF AMD
KFST 180329Z 1803/1824 26005KT 6SM BR OVC015
      TEMPO 1804/1808 4SM BR OVC005
     FM180800 VRB03KT 4SM BR OVC004
      TEMPO 1810/1814 1SM BR OVC002=

USA.gov is the U.S. government's official web portal to all federal, state and local government web resources and services.